Time;durP1;ratioP1;P1;durP2;ratioP2;P2;SDS_P1;SDS_P2;PMS_P1;PMS_P2;Temp;Humidity;BMP_temperature;BMP_pressure;BME280_temperature;BME280_humidity;BME280_pressure;Samples;Min_cycle;Max_cycle;Signal;HPM_P1;HPM_P2
2023/09/04 00:01:44;;;;;;;1.50;1.50;;;18.60;99.90;;;;;;4184424;28;20044;-58
2023/09/04 00:04:06;;;;;;;1.52;1.52;;;18.60;99.90;;;;;;4179471;28;20418;-58
2023/09/04 00:06:26;;;;;;;1.27;1.27;;;18.60;99.90;;;;;;4177217;28;20040;-58
2023/09/04 00:08:45;;;;;;;1.40;1.40;;;18.50;99.90;;;;;;4183191;28;20051;-58
2023/09/04 00:11:05;;;;;;;1.50;1.35;;;18.50;99.90;;;;;;4176414;28;20268;-58
2023/09/04 00:13:25;;;;;;;1.42;1.10;;;18.50;99.90;;;;;;4175119;28;20104;-57
2023/09/04 00:15:46;;;;;;;2.40;1.48;;;18.50;99.90;;;;;;4180833;28;20060;-58
2023/09/04 00:18:06;;;;;;;1.65;1.55;;;18.40;99.90;;;;;;4182056;28;20052;-58
2023/09/04 00:20:26;;;;;;;3.25;1.48;;;18.40;99.90;;;;;;4180515;28;20052;-58
2023/09/04 00:22:46;;;;;;;1.30;1.20;;;18.30;99.90;;;;;;4183913;28;20060;-58
2023/09/04 00:25:06;;;;;;;1.63;1.52;;;18.30;99.90;;;;;;4183568;28;20240;-57
2023/09/04 00:27:26;;;;;;;1.50;1.38;;;18.30;99.90;;;;;;4179115;28;20044;-58
2023/09/04 00:29:46;;;;;;;1.30;1.30;;;18.30;99.90;;;;;;4178983;28;20083;-58
2023/09/04 00:32:06;;;;;;;2.92;1.30;;;18.30;99.90;;;;;;4182166;28;20052;-58
2023/09/04 00:34:26;;;;;;;2.92;1.45;;;18.20;99.90;;;;;;4178866;28;20255;-58
2023/09/04 00:36:46;;;;;;;1.90;1.63;;;18.30;99.90;;;;;;4177345;28;20062;-58
2023/09/04 00:39:06;;;;;;;2.88;1.85;;;18.20;99.90;;;;;;4183747;28;20043;-58
2023/09/04 00:41:26;;;;;;;1.92;1.55;;;18.10;99.90;;;;;;4175931;28;20121;-58
2023/09/04 00:43:46;;;;;;;2.47;2.28;;;18.00;99.90;;;;;;4182094;28;20052;-58
2023/09/04 00:46:08;;;;;;;2.20;2.05;;;18.10;99.90;;;;;;4186137;28;20047;-58
2023/09/04 00:48:28;;;;;;;1.67;1.58;;;18.10;99.90;;;;;;4179841;28;20060;-58
2023/09/04 00:50:48;;;;;;;3.85;2.10;;;18.10;99.90;;;;;;4178919;28;20045;-58
2023/09/04 00:53:09;;;;;;;1.65;1.65;;;18.10;99.90;;;;;;4177153;28;20043;-57
2023/09/04 00:55:30;;;;;;;2.17;1.77;;;18.10;99.90;;;;;;4180455;28;20383;-58
2023/09/04 00:57:51;;;;;;;1.45;1.45;;;18.00;99.90;;;;;;4177476;28;20047;-58
2023/09/04 01:00:14;;;;;;;1.65;1.27;;;18.00;99.90;;;;;;4175578;28;20232;-58
2023/09/04 01:02:34;;;;;;;;;;;18.00;99.90;;;;;;4182430;28;20041;-58
2023/09/04 01:04:54;;;;;;;1.50;1.40;;;17.90;99.90;;;;;;4179362;28;19923;-58
2023/09/04 01:07:14;;;;;;;1.67;1.67;;;18.00;99.90;;;;;;4179651;28;20045;-58
2023/09/04 01:09:35;;;;;;;1.73;1.63;;;17.90;99.90;;;;;;4177962;28;20102;-58
2023/09/04 01:12:13;;;;;;;2.03;1.88;;;17.80;99.90;;;;;;4178086;28;20056;-58
2023/09/04 01:14:34;;;;;;;1.50;1.45;;;17.70;99.90;;;;;;4181371;28;20156;-58
2023/09/04 01:16:55;;;;;;;2.47;2.00;;;17.60;99.90;;;;;;4182755;28;20235;-58
2023/09/04 01:19:17;;;;;;;2.80;2.58;;;17.60;99.90;;;;;;4178838;28;20087;-58
2023/09/04 01:21:38;;;;;;;1.80;1.70;;;17.50;99.90;;;;;;4177135;28;20044;-58
2023/09/04 01:23:58;;;;;;;2.47;2.25;;;17.40;99.90;;;;;;4180455;28;20052;-58
2023/09/04 01:26:29;;;;;;;2.53;2.47;;;17.40;99.90;;;;;;4177550;28;20091;-58
2023/09/04 01:28:57;;;;;;;2.80;2.20;;;17.40;99.90;;;;;;4180025;28;20453;-58
2023/09/04 01:31:32;;;;;;;2.05;2.05;;;17.30;99.90;;;;;;4176575;28;20049;-58
2023/09/04 01:34:26;;;;;;;3.53;2.38;;;17.20;99.90;;;;;;4181370;28;20051;-58
2023/09/04 01:36:51;;;;;;;2.33;1.90;;;17.20;99.90;;;;;;4145925;28;20471;-58
2023/09/04 01:39:12;;;;;;;1.90;1.77;;;17.30;99.90;;;;;;4146860;28;20045;-58
2023/09/04 01:41:32;;;;;;;1.80;1.63;;;17.30;99.90;;;;;;4147041;28;20061;-58
2023/09/04 01:43:51;;;;;;;2.97;2.08;;;17.20;99.90;;;;;;4144445;28;20053;-58
2023/09/04 01:46:11;;;;;;;1.98;1.98;;;17.30;99.90;;;;;;4143748;28;20049;-58
2023/09/04 01:48:34;;;;;;;3.50;2.10;;;17.30;99.90;;;;;;4147919;28;20111;-58
2023/09/04 01:50:54;;;;;;;1.90;1.80;;;17.30;99.90;;;;;;4147911;28;20037;-58
2023/09/04 01:53:14;;;;;;;2.15;2.00;;;17.40;99.90;;;;;;4140206;28;20061;-58
2023/09/04 01:55:34;;;;;;;2.97;2.15;;;17.40;99.90;;;;;;4142941;28;20387;-58
2023/09/04 01:57:54;;;;;;;3.17;1.92;;;17.40;99.90;;;;;;4145446;28;20049;-58
2023/09/04 02:00:14;;;;;;;2.13;1.77;;;17.40;99.90;;;;;;4145488;28;20480;-58
2023/09/04 02:02:34;;;;;;;1.92;1.88;;;17.40;99.90;;;;;;4143195;28;20153;-58
2023/09/04 02:04:54;;;;;;;2.10;2.10;;;17.40;99.90;;;;;;4144376;28;20045;-58
2023/09/04 02:07:13;;;;;;;5.57;2.35;;;17.40;99.90;;;;;;4148812;28;20469;-58
2023/09/04 02:09:33;;;;;;;1.88;1.77;;;17.40;99.90;;;;;;4142867;28;20126;-58
2023/09/04 02:11:53;;;;;;;1.80;1.80;;;17.40;99.90;;;;;;4144539;28;20110;-58
2023/09/04 02:14:13;;;;;;;2.60;1.75;;;17.50;99.90;;;;;;4180704;28;20052;-58
2023/09/04 02:16:33;;;;;;;3.05;1.73;;;17.40;99.90;;;;;;4181683;28;20111;-58
2023/09/04 02:18:55;;;;;;;1.90;1.80;;;17.40;99.90;;;;;;4176914;28;20088;-58
2023/09/04 02:21:15;;;;;;;2.05;1.67;;;17.30;99.90;;;;;;4180817;28;20109;-58
2023/09/04 02:23:35;;;;;;;2.20;2.20;;;17.30;99.90;;;;;;4183470;28;20065;-58
2023/09/04 02:25:56;;;;;;;1.90;1.52;;;17.20;99.90;;;;;;4178249;28;20289;-58
2023/09/04 02:28:17;;;;;;;1.88;1.83;;;17.20;99.90;;;;;;4184497;28;20422;-57
2023/09/04 02:30:38;;;;;;;2.00;1.90;;;17.10;99.90;;;;;;4180444;28;20048;-58
2023/09/04 02:33:00;;;;;;;8.23;2.05;;;17.10;99.90;;;;;;4179041;28;20086;-58
2023/09/04 02:35:20;;;;;;;4.55;1.70;;;17.00;99.90;;;;;;4180812;28;20057;-58
2023/09/04 02:37:41;;;;;;;2.78;1.88;;;16.80;99.90;;;;;;4174973;28;20417;-58
2023/09/04 02:40:05;;;;;;;2.00;1.90;;;16.70;99.90;;;;;;4178947;28;20101;-58
2023/09/04 02:42:29;;;;;;;6.30;2.13;;;16.90;99.90;;;;;;4181068;28;20114;-58
2023/09/04 02:44:48;;;;;;;2.50;2.42;;;16.80;99.90;;;;;;4180253;28;20051;-58
2023/09/04 02:47:08;;;;;;;1.80;1.80;;;16.80;99.90;;;;;;4181465;28;20085;-58
2023/09/04 02:49:28;;;;;;;2.58;2.30;;;16.80;99.90;;;;;;4183370;28;20111;-58
2023/09/04 02:51:48;;;;;;;1.63;1.60;;;16.80;99.90;;;;;;4178696;28;20367;-57
2023/09/04 02:54:08;;;;;;;2.78;2.17;;;16.80;99.90;;;;;;4177496;28;20500;-58
2023/09/04 02:56:28;;;;;;;1.90;1.90;;;16.70;99.90;;;;;;4183354;28;20052;-58
2023/09/04 02:58:47;;;;;;;2.65;2.22;;;16.70;99.90;;;;;;4181064;28;20128;-58
2023/09/04 03:01:08;;;;;;;1.75;1.65;;;16.70;99.90;;;;;;4185742;28;20158;-58
2023/09/04 03:03:28;;;;;;;2.28;2.08;;;16.70;99.90;;;;;;4178486;28;20052;-58
2023/09/04 03:05:48;;;;;;;2.03;2.00;;;16.70;99.90;;;;;;4182125;28;20071;-58
2023/09/04 03:08:08;;;;;;;2.95;2.78;;;16.70;99.90;;;;;;4179405;28;20084;-58
2023/09/04 03:10:31;;;;;;;2.08;1.98;;;16.70;99.90;;;;;;4180804;28;20121;-58
2023/09/04 03:12:52;;;;;;;2.05;1.95;;;16.90;99.90;;;;;;4179016;28;20049;-58
2023/09/04 03:15:13;;;;;;;3.22;2.08;;;17.00;99.90;;;;;;4182378;28;20078;-58
2023/09/04 03:17:33;;;;;;;2.97;2.38;;;17.20;99.90;;;;;;4179781;28;20051;-58
2023/09/04 03:19:55;;;;;;;1.85;1.85;;;17.20;99.90;;;;;;4183905;28;20052;-58
2023/09/04 03:22:14;;;;;;;2.72;2.20;;;17.30;99.90;;;;;;4177801;28;20072;-58
2023/09/04 03:24:34;;;;;;;2.10;2.10;;;17.40;99.90;;;;;;4185920;28;20075;-58
2023/09/04 03:26:54;;;;;;;1.85;1.75;;;17.40;99.90;;;;;;4184013;28;20369;-57
2023/09/04 03:29:15;;;;;;;1.77;1.40;;;17.30;99.90;;;;;;4183251;28;20060;-58
2023/09/04 03:31:35;;;;;;;4.97;2.20;;;17.20;99.90;;;;;;4176205;28;20083;-58
2023/09/04 03:33:55;;;;;;;2.33;2.17;;;17.20;99.90;;;;;;4179211;28;20289;-58
2023/09/04 03:36:15;;;;;;;3.88;2.55;;;17.30;99.90;;;;;;4181407;28;20060;-58
2023/09/04 03:38:35;;;;;;;2.17;1.92;;;17.20;99.90;;;;;;4177361;28;20283;-58
2023/09/04 03:40:55;;;;;;;1.80;1.77;;;17.10;99.90;;;;;;4182418;28;20052;-58
2023/09/04 03:43:15;;;;;;;2.47;2.33;;;17.10;99.90;;;;;;4181581;28;20056;-58
2023/09/04 03:45:35;;;;;;;2.20;2.20;;;17.10;99.90;;;;;;4186941;28;20048;-58
2023/09/04 03:47:56;;;;;;;1.67;1.58;;;17.00;99.90;;;;;;4187487;28;20256;-58
2023/09/04 03:50:16;;;;;;;2.08;2.03;;;17.00;99.90;;;;;;4182487;28;20048;-58
2023/09/04 03:52:36;;;;;;;1.83;1.73;;;17.10;99.90;;;;;;4180786;28;20362;-58
2023/09/04 03:54:56;;;;;;;2.53;2.33;;;17.10;99.90;;;;;;4186325;28;20423;-58
2023/09/04 03:57:16;;;;;;;2.13;1.90;;;17.00;99.90;;;;;;4182261;28;20063;-58
2023/09/04 03:59:35;;;;;;;1.85;1.75;;;17.10;99.90;;;;;;4180762;28;20356;-58
2023/09/04 04:01:55;;;;;;;1.65;1.55;;;17.10;99.90;;;;;;4180941;28;20036;-58
2023/09/04 04:04:15;;;;;;;2.58;2.38;;;17.10;99.90;;;;;;4182370;28;20104;-58
2023/09/04 04:06:35;;;;;;;2.55;1.73;;;17.10;99.90;;;;;;4183631;28;20402;-58
2023/09/04 04:08:54;;;;;;;3.65;1.65;;;17.00;99.90;;;;;;4177476;28;20083;-58
2023/09/04 04:11:15;;;;;;;1.67;1.67;;;17.00;99.90;;;;;;4178799;28;20055;-58
2023/09/04 04:13:35;;;;;;;2.50;1.50;;;16.90;99.90;;;;;;4173746;28;20371;-58
2023/09/04 04:15:59;;;;;;;2.45;1.60;;;16.80;99.90;;;;;;4186857;28;20039;-58
2023/09/04 04:18:19;;;;;;;2.20;1.80;;;16.70;99.90;;;;;;4183907;28;20087;-58
2023/09/04 04:20:39;;;;;;;2.38;2.08;;;16.60;99.90;;;;;;4178907;28;20056;-58
2023/09/04 04:22:59;;;;;;;2.00;1.95;;;16.60;99.90;;;;;;4179420;28;20071;-58
2023/09/04 04:25:18;;;;;;;2.10;2.00;;;16.50;99.90;;;;;;4180050;28;20245;-58
2023/09/04 04:27:39;;;;;;;2.38;2.28;;;16.50;99.90;;;;;;4181157;28;20083;-58
2023/09/04 04:29:59;;;;;;;1.80;1.80;;;16.50;99.90;;;;;;4183655;28;20060;-58
2023/09/04 04:32:19;;;;;;;2.38;2.28;;;16.40;99.90;;;;;;4176593;28;20072;-58
2023/09/04 04:34:41;;;;;;;3.42;3.25;;;16.30;99.90;;;;;;4180348;28;20047;-58
2023/09/04 04:37:01;;;;;;;3.28;3.17;;;16.30;99.90;;;;;;4179116;28;20065;-58
2023/09/04 04:39:21;;;;;;;3.28;3.17;;;16.30;99.90;;;;;;4181312;28;20043;-58
2023/09/04 04:41:41;;;;;;;4.93;2.80;;;16.20;99.90;;;;;;4179500;28;20064;-58
2023/09/04 04:44:01;;;;;;;2.97;2.60;;;16.20;99.90;;;;;;4175960;28;20375;-58
2023/09/04 04:46:21;;;;;;;2.50;2.50;;;16.20;99.90;;;;;;4179765;28;20083;-58
2023/09/04 04:48:42;;;;;;;2.78;2.78;;;16.20;99.90;;;;;;4176597;28;20083;-58
2023/09/04 04:51:01;;;;;;;2.67;2.47;;;16.30;99.90;;;;;;4176622;28;20040;-58
2023/09/04 04:53:21;;;;;;;2.78;2.67;;;16.30;99.90;;;;;;4182821;28;20055;-58
2023/09/04 04:55:41;;;;;;;2.00;2.00;;;16.40;99.90;;;;;;4177426;28;20394;-58
2023/09/04 04:58:00;;;;;;;3.95;3.60;;;16.40;99.90;;;;;;4178603;28;20424;-58
2023/09/04 05:00:21;;;;;;;3.00;2.90;;;16.50;99.90;;;;;;4179719;28;20056;-58
2023/09/04 05:02:41;;;;;;;2.38;2.38;;;16.50;99.90;;;;;;4181199;28;20064;-58
2023/09/04 05:05:01;;;;;;;3.10;3.00;;;16.50;99.90;;;;;;4176611;28;20108;-58
2023/09/04 05:07:21;;;;;;;2.58;2.47;;;16.60;99.90;;;;;;4178680;28;20378;-58
2023/09/04 05:09:41;;;;;;;2.35;2.25;;;16.60;99.90;;;;;;4181442;28;20124;-58
2023/09/04 05:12:01;;;;;;;2.83;2.25;;;16.60;99.90;;;;;;4174391;28;20048;-58
2023/09/04 05:14:21;;;;;;;2.13;2.03;;;16.70;99.90;;;;;;4175049;28;20296;-58
2023/09/04 05:16:41;;;;;;;3.00;2.90;;;16.70;99.90;;;;;;4179616;28;20047;-58
2023/09/04 05:19:01;;;;;;;2.60;2.25;;;16.70;99.90;;;;;;4180396;28;20045;-58
2023/09/04 05:21:21;;;;;;;2.20;2.10;;;16.80;99.90;;;;;;4183844;28;20064;-58
2023/09/04 05:23:41;;;;;;;4.10;2.35;;;16.80;99.90;;;;;;4178593;28;20451;-60
2023/09/04 05:26:01;;;;;;;3.20;2.70;;;16.90;99.90;;;;;;4182225;28;20421;-60
2023/09/04 05:28:21;;;;;;;3.08;2.65;;;17.00;99.90;;;;;;4176717;28;20120;-60
2023/09/04 05:30:41;;;;;;;2.25;2.15;;;17.00;99.90;;;;;;4174699;28;20048;-60
2023/09/04 05:33:02;;;;;;;2.38;1.92;;;17.00;99.90;;;;;;4181038;28;20055;-60
2023/09/04 05:35:22;;;;;;;4.05;2.53;;;17.00;99.90;;;;;;4179809;28;20044;-60
2023/09/04 05:37:42;;;;;;;4.70;2.38;;;17.00;99.90;;;;;;4174404;28;20079;-60
2023/09/04 05:40:03;;;;;;;2.70;2.30;;;17.10;99.90;;;;;;4180197;28;20256;-60
2023/09/04 05:42:23;;;;;;;1.85;1.75;;;17.10;99.90;;;;;;4180516;28;20044;-60
2023/09/04 05:44:43;;;;;;;2.78;2.58;;;17.10;99.90;;;;;;4182174;28;20344;-60
2023/09/04 05:47:04;;;;;;;1.75;1.65;;;17.10;99.90;;;;;;4179581;28;20048;-60
2023/09/04 05:49:24;;;;;;;3.40;1.75;;;17.20;99.90;;;;;;4178511;28;20057;-60
2023/09/04 05:51:44;;;;;;;2.10;1.95;;;17.20;99.90;;;;;;4175915;28;20152;-60
2023/09/04 05:54:04;;;;;;;2.17;2.17;;;17.20;99.90;;;;;;4177593;28;20079;-60
2023/09/04 05:56:23;;;;;;;2.65;2.13;;;17.20;99.90;;;;;;4181870;28;20151;-60
2023/09/04 05:58:48;;;;;;;2.30;2.00;;;17.30;99.90;;;;;;4181879;28;20374;-60
2023/09/04 06:01:08;;;;;;;2.83;2.72;;;17.30;99.90;;;;;;4179908;28;20047;-60
2023/09/04 06:03:29;;;;;;;3.30;1.95;;;17.40;99.90;;;;;;4176310;28;20051;-60
2023/09/04 06:05:49;;;;;;;3.67;3.35;;;17.40;99.90;;;;;;4178863;28;20371;-60
2023/09/04 06:08:09;;;;;;;2.20;2.10;;;17.30;99.90;;;;;;4177969;28;20112;-60
2023/09/04 06:10:29;;;;;;;4.15;2.45;;;17.30;99.90;;;;;;4181619;28;20103;-60
2023/09/04 06:12:49;;;;;;;2.28;2.28;;;17.40;99.90;;;;;;4184270;28;20048;-60
2023/09/04 06:15:09;;;;;;;3.00;2.15;;;17.40;99.90;;;;;;4178619;28;20113;-60
2023/09/04 06:17:29;;;;;;;2.42;1.80;;;17.40;99.90;;;;;;4172476;28;20048;-60
2023/09/04 06:19:50;;;;;;;2.85;2.63;;;17.40;99.90;;;;;;4181942;28;20064;-60
2023/09/04 06:22:09;;;;;;;2.08;1.88;;;17.50;99.90;;;;;;4183296;28;20393;-60
2023/09/04 06:24:29;;;;;;;2.50;2.40;;;17.60;99.90;;;;;;4180359;28;20052;-60
2023/09/04 06:26:49;;;;;;;2.85;2.65;;;17.70;99.90;;;;;;4174726;28;20068;-60
2023/09/04 06:29:09;;;;;;;2.30;1.75;;;17.80;99.90;;;;;;4176229;28;20193;-60
2023/09/04 06:31:29;;;;;;;2.45;1.50;;;17.80;99.90;;;;;;4175040;28;20083;-60
2023/09/04 06:33:50;;;;;;;1.30;1.30;;;18.00;99.90;;;;;;4180268;28;20104;-60
2023/09/04 06:36:10;;;;;;;1.40;1.30;;;18.40;99.90;;;;;;4180508;28;20048;-60
2023/09/04 06:38:30;;;;;;;2.60;1.67;;;18.60;99.90;;;;;;4178237;28;20147;-60
2023/09/04 06:40:57;;;;;;;1.45;1.38;;;18.70;99.90;;;;;;4174774;28;20087;-60
2023/09/04 06:43:17;;;;;;;2.70;1.95;;;18.80;99.90;;;;;;4177426;28;20113;-60
2023/09/04 06:45:37;;;;;;;1.73;1.73;;;18.80;99.90;;;;;;4178887;28;20143;-60
2023/09/04 06:47:57;;;;;;;2.63;1.60;;;18.90;99.90;;;;;;4174367;28;20059;-60
2023/09/04 06:50:18;;;;;;;2.08;1.92;;;19.00;99.90;;;;;;4180011;28;20048;-60
2023/09/04 06:52:37;;;;;;;1.48;1.38;;;19.00;99.90;;;;;;4179148;28;20049;-60
2023/09/04 06:54:57;;;;;;;2.13;1.92;;;19.20;99.90;;;;;;4177739;28;20076;-60
2023/09/04 06:57:17;;;;;;;3.10;1.83;;;19.30;99.90;;;;;;4178938;28;20298;-60
2023/09/04 06:59:37;;;;;;;2.00;1.48;;;19.40;99.90;;;;;;4182998;28;20087;-60
2023/09/04 07:01:57;;;;;;;1.20;1.20;;;19.50;99.90;;;;;;4181862;28;20049;-60
2023/09/04 07:04:17;;;;;;;1.27;1.20;;;19.60;99.90;;;;;;4178819;28;20048;-60
2023/09/04 07:06:37;;;;;;;2.72;1.30;;;19.70;99.90;;;;;;4184260;28;20231;-60
2023/09/04 07:08:57;;;;;;;2.67;1.70;;;19.90;99.90;;;;;;4185526;28;20051;-60
2023/09/04 07:11:17;;;;;;;1.63;1.52;;;20.20;99.90;;;;;;4184237;28;20052;-60
2023/09/04 07:13:37;;;;;;;1.38;1.25;;;20.30;99.90;;;;;;4178575;28;20056;-60
2023/09/04 07:15:57;;;;;;;2.13;1.00;;;20.50;99.90;;;;;;4180664;28;20056;-60
2023/09/04 07:18:17;;;;;;;1.35;1.35;;;20.70;99.90;;;;;;4177563;28;20044;-60
2023/09/04 07:20:37;;;;;;;1.30;1.20;;;20.80;99.90;;;;;;4181350;28;20091;-60
2023/09/04 07:22:56;;;;;;;1.67;1.10;;;20.90;99.90;;;;;;4179800;28;20052;-60
2023/09/04 07:25:36;;;;;;;1.98;1.00;;;21.10;99.90;;;;;;4183513;28;20316;-60
2023/09/04 07:27:57;;;;;;;1.00;1.00;;;21.10;99.90;;;;;;4177563;28;20072;-60
2023/09/04 07:30:17;;;;;;;5.53;1.15;;;21.30;99.90;;;;;;4176362;28;20044;-60
2023/09/04 07:32:37;;;;;;;2.92;1.00;;;21.60;99.90;;;;;;4179081;28;20048;-60
2023/09/04 07:34:56;;;;;;;3.45;1.42;;;21.80;99.90;;;;;;4178230;28;20055;-60
2023/09/04 07:37:16;;;;;;;3.13;1.27;;;22.00;99.90;;;;;;4181627;28;20044;-60
2023/09/04 07:39:37;;;;;;;1.65;1.20;;;22.30;99.90;;;;;;4177958;28;20044;-60
2023/09/04 07:41:57;;;;;;;2.05;1.00;;;22.50;99.90;;;;;;4183020;28;20370;-60
2023/09/04 07:44:17;;;;;;;2.08;0.98;;;22.70;99.90;;;;;;4178974;28;20045;-60
2023/09/04 07:46:37;;;;;;;0.98;0.85;;;23.00;99.90;;;;;;4178917;28;20088;-60
2023/09/04 07:48:57;;;;;;;3.75;0.82;;;23.20;99.90;;;;;;4182140;28;20060;-58
2023/09/04 07:51:19;;;;;;;0.80;0.80;;;23.30;99.90;;;;;;4178541;28;20371;-58
2023/09/04 07:53:54;;;;;;;0.70;0.70;;;23.70;99.90;;;;;;4178891;28;20048;-58
2023/09/04 07:56:14;;;;;;;1.85;0.60;;;23.70;99.90;;;;;;4182115;28;20045;-58
2023/09/04 07:58:35;;;;;;;0.70;0.70;;;24.00;99.90;;;;;;4181757;28;20048;-58
2023/09/04 08:00:55;;;;;;;5.28;0.60;;;23.90;99.00;;;;;;4181783;28;20044;-57
2023/09/04 08:03:15;;;;;;;6.75;0.80;;;23.90;98.50;;;;;;4186451;28;20052;-58
2023/09/04 08:05:35;;;;;;;0.70;0.70;;;24.00;98.90;;;;;;4181848;28;20270;-58
2023/09/04 08:07:55;;;;;;;1.75;0.70;;;24.00;98.50;;;;;;4180781;28;20049;-58
2023/09/04 08:10:15;;;;;;;0.60;0.60;;;24.20;98.00;;;;;;4179434;28;20048;-58
2023/09/04 08:12:36;;;;;;;1.85;0.60;;;24.30;96.90;;;;;;4183722;28;20039;-58
2023/09/04 08:14:55;;;;;;;0.68;0.60;;;24.40;95.80;;;;;;4173763;28;20049;-57
2023/09/04 08:17:16;;;;;;;1.65;0.70;;;24.30;94.80;;;;;;4177429;28;20236;-57
2023/09/04 08:19:36;;;;;;;0.60;0.60;;;24.30;94.80;;;;;;4180576;28;20048;-57
2023/09/04 08:21:57;;;;;;;0.70;0.68;;;24.30;95.00;;;;;;4185072;28;20366;-57
2023/09/04 08:24:17;;;;;;;1.08;0.70;;;24.40;94.70;;;;;;4175618;28;20091;-58
2023/09/04 08:26:37;;;;;;;0.50;0.50;;;24.30;94.00;;;;;;4177597;28;20080;-57
2023/09/04 08:28:57;;;;;;;0.70;0.60;;;24.40;94.10;;;;;;4182171;28;20275;-58
2023/09/04 08:31:17;;;;;;;1.10;0.70;;;24.40;94.80;;;;;;4183473;28;20268;-58
2023/09/04 08:33:37;;;;;;;0.93;0.60;;;24.50;94.00;;;;;;4178085;28;20044;-57
2023/09/04 08:35:56;;;;;;;0.60;0.60;;;24.70;93.40;;;;;;4179043;28;20295;-58
2023/09/04 08:38:17;;;;;;;0.60;0.60;;;24.60;92.20;;;;;;4180706;28;20080;-58
2023/09/04 08:40:40;;;;;;;1.75;0.60;;;24.70;94.10;;;;;;4181770;28;20087;-58
2023/09/04 08:43:01;;;;;;;0.50;0.50;;;24.80;93.30;;;;;;4180057;28;20052;-57
2023/09/04 08:45:21;;;;;;;0.55;0.55;;;24.80;92.70;;;;;;4179666;28;20064;-58
2023/09/04 08:47:42;;;;;;;0.55;0.55;;;24.80;92.90;;;;;;4176920;28;20240;-58
2023/09/04 08:50:03;;;;;;;0.60;0.60;;;25.00;92.70;;;;;;4175306;28;20095;-57
2023/09/04 08:52:23;;;;;;;0.60;0.60;;;24.80;92.30;;;;;;4181220;28;20044;-58
2023/09/04 08:54:44;;;;;;;0.50;0.50;;;24.90;92.50;;;;;;4173345;28;20247;-57
2023/09/04 08:57:04;;;;;;;0.70;0.70;;;24.80;91.80;;;;;;4184025;28;20039;-57
2023/09/04 08:59:24;;;;;;;0.60;0.60;;;25.00;91.80;;;;;;4175314;28;20303;-58
2023/09/04 09:01:44;;;;;;;0.60;0.60;;;25.00;91.90;;;;;;4179606;28;20114;-58
2023/09/04 09:04:05;;;;;;;0.60;0.60;;;25.10;91.60;;;;;;4180496;28;20056;-57
2023/09/04 09:06:25;;;;;;;0.60;0.60;;;25.10;91.50;;;;;;4180640;28;20039;-58
2023/09/04 09:08:48;;;;;;;1.55;0.60;;;25.20;92.20;;;;;;4177995;28;20049;-57
2023/09/04 09:11:08;;;;;;;0.77;0.60;;;25.50;91.50;;;;;;4176369;28;20056;-57
2023/09/04 09:13:28;;;;;;;1.20;0.60;;;25.60;91.10;;;;;;4179724;28;20052;-57
2023/09/04 09:15:49;;;;;;;0.80;0.80;;;25.60;90.00;;;;;;4180474;28;20129;-58
2023/09/04 09:18:08;;;;;;;0.60;0.60;;;25.60;91.30;;;;;;4181656;28;20047;-58
2023/09/04 09:20:31;;;;;;;0.60;0.60;;;25.80;91.00;;;;;;4178960;28;20072;-58
2023/09/04 09:22:51;;;;;;;1.65;0.60;;;26.20;90.60;;;;;;4181159;28;20040;-58
2023/09/04 09:25:18;;;;;;;0.57;0.57;;;26.30;90.00;;;;;;4177524;28;20045;-58
2023/09/04 09:27:40;;;;;;;0.60;0.60;;;26.50;89.50;;;;;;4176112;28;20083;-57
2023/09/04 09:30:00;;;;;;;;;;;26.40;90.00;;;;;;4178802;28;20056;-57
2023/09/04 09:32:20;;;;;;;0.60;0.60;;;26.00;88.80;;;;;;4185094;28;19959;-57
2023/09/04 09:34:40;;;;;;;1.50;0.60;;;26.10;89.40;;;;;;4184966;28;20108;-58
2023/09/04 09:37:01;;;;;;;2.53;0.60;;;26.10;90.30;;;;;;4176900;28;20043;-57
2023/09/04 09:39:21;;;;;;;0.60;0.60;;;26.20;90.30;;;;;;4178711;28;20287;-58
2023/09/04 09:41:41;;;;;;;0.60;0.60;;;26.00;90.00;;;;;;4178333;28;20052;-57
2023/09/04 09:44:03;;;;;;;1.33;0.68;;;25.60;90.20;;;;;;4174929;28;20048;-57
2023/09/04 09:46:23;;;;;;;;;;;25.70;90.20;;;;;;4184578;28;20087;-58
2023/09/04 09:48:45;;;;;;;0.70;0.70;;;25.50;90.30;;;;;;4172814;28;19924;-57
2023/09/04 09:51:06;;;;;;;0.77;0.77;;;25.50;91.10;;;;;;4176957;28;20052;-57
2023/09/04 09:53:34;;;;;;;0.70;0.63;;;25.70;90.90;;;;;;4181515;28;20048;-58
2023/09/04 09:55:55;;;;;;;1.25;0.60;;;25.70;90.40;;;;;;4177634;28;20087;-57
2023/09/04 09:58:16;;;;;;;0.70;0.70;;;25.70;90.50;;;;;;4175847;28;20044;-58
2023/09/04 10:00:37;;;;;;;1.58;0.65;;;25.70;90.10;;;;;;4176005;28;20482;-57
2023/09/04 10:02:58;;;;;;;1.25;0.70;;;25.70;90.50;;;;;;4182175;28;20048;-57
2023/09/04 10:05:21;;;;;;;0.70;0.70;;;25.70;91.10;;;;;;4179441;28;20229;-58
2023/09/04 10:07:46;;;;;;;0.60;0.60;;;26.00;90.70;;;;;;4182173;28;20128;-57
2023/09/04 10:10:07;;;;;;;1.70;0.60;;;26.40;90.80;;;;;;4176690;28;20217;-58
2023/09/04 10:12:36;;;;;;;0.60;0.60;;;26.80;91.00;;;;;;4178202;28;20055;-57
2023/09/04 10:14:58;;;;;;;0.60;0.60;;;26.90;90.10;;;;;;4177604;28;20113;-57
2023/09/04 10:17:35;;;;;;;1.25;0.73;;;26.60;89.90;;;;;;4180261;28;20148;-58
2023/09/04 10:20:01;;;;;;;0.60;0.60;;;26.70;90.90;;;;;;4178489;28;20040;-57
2023/09/04 10:22:30;;;;;;;0.60;0.60;;;26.60;90.60;;;;;;4175055;28;20213;-58
2023/09/04 10:24:53;;;;;;;0.60;0.60;;;26.40;90.40;;;;;;4177373;28;20107;-58
2023/09/04 10:27:16;;;;;;;0.60;0.60;;;26.30;91.10;;;;;;4175261;28;20048;-57
2023/09/04 10:29:46;;;;;;;0.60;0.60;;;26.30;90.90;;;;;;4179514;28;20079;-57
2023/09/04 10:32:08;;;;;;;0.60;0.60;;;26.30;91.20;;;;;;4183159;28;20049;-58
2023/09/04 10:34:30;;;;;;;0.57;0.57;;;26.60;91.60;;;;;;4181209;28;20048;-58
2023/09/04 10:36:50;;;;;;;0.60;0.60;;;26.60;91.40;;;;;;4179635;28;20244;-58
2023/09/04 10:39:10;;;;;;;0.60;0.60;;;26.90;91.70;;;;;;4180575;28;20083;-58
2023/09/04 10:41:33;;;;;;;1.98;0.60;;;27.00;91.60;;;;;;4178672;28;20135;-58
2023/09/04 10:43:53;;;;;;;0.70;0.60;;;27.00;91.50;;;;;;4184069;28;20049;-58
2023/09/04 10:46:14;;;;;;;1.00;0.70;;;27.30;92.40;;;;;;4180031;28;20039;-57
2023/09/04 10:48:48;;;;;;;2.13;0.60;;;27.10;91.30;;;;;;4177055;28;20044;-57
2023/09/04 10:51:30;;;;;;;0.60;0.60;;;26.90;91.10;;;;;;4179863;28;20374;-57
2023/09/04 10:53:50;;;;;;;1.75;0.60;;;26.30;90.90;;;;;;4182366;28;20057;-58
2023/09/04 10:56:11;;;;;;;0.60;0.60;;;26.30;92.10;;;;;;4181768;28;20071;-58
2023/09/04 10:58:58;;;;;;;0.70;0.70;;;26.30;91.00;;;;;;4180079;28;20087;-58
2023/09/04 11:01:31;;;;;;;0.80;0.80;;;26.10;91.50;;;;;;4180581;28;20048;-58
2023/09/04 11:03:55;;;;;;;0.70;0.57;;;26.40;91.10;;;;;;4183618;28;20079;-58
2023/09/04 11:06:20;;;;;;;0.50;0.50;;;26.90;92.40;;;;;;4193201;28;20112;-57
2023/09/04 11:08:52;;;;;;;1.25;0.50;;;27.10;90.50;;;;;;4183664;28;20044;-58
2023/09/04 11:11:12;;;;;;;0.60;0.60;;;27.10;89.00;;;;;;4178606;28;20045;-57
2023/09/04 11:13:34;;;;;;;0.70;0.60;;;26.90;87.30;;;;;;4182676;28;20103;-57
2023/09/04 11:15:57;;;;;;;0.60;0.60;;;27.10;88.90;;;;;;4181120;28;20048;-57
2023/09/04 11:18:19;;;;;;;0.80;0.60;;;27.30;87.80;;;;;;4183431;28;20044;-58
2023/09/04 11:20:45;;;;;;;0.60;0.60;;;27.20;88.40;;;;;;4186317;28;20056;-57
2023/09/04 11:23:06;;;;;;;2.53;0.60;;;27.00;84.20;;;;;;4182671;28;20112;-57
2023/09/04 11:25:26;;;;;;;1.58;0.60;;;26.70;85.20;;;;;;4179260;28;20056;-58
2023/09/04 11:27:46;;;;;;;0.60;0.60;;;27.00;90.20;;;;;;4187467;28;20055;-58
2023/09/04 11:30:08;;;;;;;0.57;0.57;;;27.20;85.00;;;;;;4181445;28;20416;-57
2023/09/04 11:32:29;;;;;;;0.60;0.60;;;26.80;85.20;;;;;;4177335;28;20037;-57
2023/09/04 11:34:50;;;;;;;0.60;0.60;;;27.10;84.00;;;;;;4184996;28;20408;-57
2023/09/04 11:37:12;;;;;;;0.60;0.60;;;26.60;85.20;;;;;;4182341;28;20040;-57
2023/09/04 11:39:31;;;;;;;0.60;0.60;;;27.10;87.00;;;;;;4181074;28;20108;-59
2023/09/04 11:41:52;;;;;;;0.70;0.70;;;27.30;84.70;;;;;;4180381;28;20290;-59
2023/09/04 11:44:12;;;;;;;0.60;0.60;;;27.30;83.60;;;;;;4183369;28;20057;-59
2023/09/04 11:46:34;;;;;;;0.55;0.55;;;27.40;84.40;;;;;;4181745;28;20402;-59
2023/09/04 11:48:54;;;;;;;0.52;0.52;;;27.60;82.60;;;;;;4177444;28;20083;-59
2023/09/04 11:51:13;;;;;;;0.50;0.50;;;27.90;84.60;;;;;;4186719;28;20073;-59
2023/09/04 11:53:34;;;;;;;0.50;0.50;;;27.80;82.50;;;;;;4180547;28;20085;-59
2023/09/04 11:55:54;;;;;;;1.75;0.70;;;27.80;82.30;;;;;;4176552;28;20091;-59
2023/09/04 11:58:14;;;;;;;0.60;0.60;;;27.50;81.10;;;;;;4181541;28;20056;-60
2023/09/04 12:00:34;;;;;;;0.70;0.70;;;27.30;85.10;;;;;;4186017;28;20394;-60
2023/09/04 12:02:53;;;;;;;1.25;0.60;;;27.30;83.50;;;;;;4179987;28;20080;-61
2023/09/04 12:05:14;;;;;;;0.70;0.70;;;27.50;82.20;;;;;;4178472;28;20060;-61
2023/09/04 12:07:35;;;;;;;0.50;0.50;;;27.00;82.40;;;;;;4181331;28;20056;-61
2023/09/04 12:09:55;;;;;;;0.60;0.60;;;27.20;84.90;;;;;;4182647;28;20091;-60
2023/09/04 12:12:16;;;;;;;0.60;0.60;;;27.60;84.30;;;;;;4177587;28;20052;-61
2023/09/04 12:14:44;;;;;;;0.60;0.60;;;27.20;83.30;;;;;;4181583;28;20109;-61
2023/09/04 12:17:10;;;;;;;1.17;0.60;;;27.20;83.90;;;;;;4179423;28;20088;-61